Time;durP1;ratioP1;P1;durP2;ratioP2;P2;SDS_P1;SDS_P2;PMS_P1;PMS_P2;Temp;Humidity;BMP_temperature;BMP_pressure;BME280_temperature;BME280_humidity;BME280_pressure;Samples;Min_cycle;Max_cycle;Signal;HPM_P1;HPM_P2
2020/12/13 09:25:44;;;;;;;24.70;11.88;;;6.90;99.90;;;;;;5126756;27;20859;-75
2020/12/13 09:28:12;;;;;;;26.35;12.60;;;7.20;99.90;;;;;;5125295;27;20032;-74
2020/12/13 09:30:39;;;;;;;27.27;12.65;;;7.60;99.90;;;;;;5102513;27;20035;-75
2020/12/13 09:33:08;;;;;;;25.23;12.27;;;8.00;99.90;;;;;;5106741;28;20489;-75
2020/12/13 09:35:34;;;;;;;31.27;11.38;;;8.20;99.90;;;;;;5090933;28;20384;-74
2020/12/13 09:38:05;;;;;;;20.40;9.43;;;8.50;99.90;;;;;;5082721;28;20028;-74
2020/12/13 09:40:32;;;;;;;;;;;8.60;99.90;;;;;;5100057;28;20032;-73
2020/12/13 09:42:58;;;;;;;20.40;9.18;;;8.90;99.90;;;;;;5103823;28;19916;-75
2020/12/13 10:01:07;;;;;;;26.30;9.45;;;9.20;99.90;;;;;;5117196;27;20365;-78
2020/12/13 10:03:33;;;;;;;22.42;10.25;;;9.20;99.90;;;;;;5103277;28;20486;-78
2020/12/13 10:06:26;;;;;;;26.02;9.60;;;9.20;99.90;;;;;;5099731;28;20042;-78
2020/12/13 10:09:10;;;;;;;24.70;8.80;;;9.30;99.90;;;;;;5101802;28;20501;-78
2020/12/13 10:11:38;;;;;;;26.58;8.00;;;9.40;99.90;;;;;;5104055;28;20036;-78
2020/12/13 10:14:06;;;;;;;25.00;7.53;;;9.40;99.90;;;;;;5098206;28;20482;-78
2020/12/13 10:16:33;;;;;;;22.15;8.13;;;9.50;99.90;;;;;;5102004;27;20047;-74
2020/12/13 10:18:58;;;;;;;22.63;8.48;;;9.60;99.90;;;;;;5098055;28;20032;-74
2020/12/13 10:21:28;;;;;;;27.70;9.55;;;9.60;99.90;;;;;;5096815;28;20094;-74
2020/12/13 10:26:36;;;;;;;21.20;9.02;;;9.60;99.90;;;;;;5116592;27;20337;-74
2020/12/13 10:29:04;;;;;;;25.45;9.95;;;9.60;99.90;;;;;;5117246;27;20019;-74
2020/12/13 10:31:34;;;;;;;30.10;8.35;;;9.60;99.90;;;;;;5098495;27;20043;-72
2020/12/13 10:34:02;;;;;;;22.00;10.23;;;9.60;99.90;;;;;;5084759;28;20103;-73
2020/12/13 10:36:27;;;;;;;29.63;11.05;;;9.60;99.90;;;;;;5079353;28;20036;-74
2020/12/13 10:38:54;;;;;;;22.45;9.25;;;9.70;99.90;;;;;;5079662;28;20402;-73
2020/12/13 10:41:20;;;;;;;23.48;6.93;;;9.70;99.90;;;;;;5080553;28;20614;-74
2020/12/13 10:43:47;;;;;;;22.27;5.75;;;9.70;99.90;;;;;;5079540;28;20052;-74
2020/12/13 10:46:14;;;;;;;18.70;5.75;;;9.60;99.90;;;;;;5080994;28;20109;-76
2020/12/13 10:48:39;;;;;;;13.68;5.40;;;9.70;99.90;;;;;;5064492;28;20429;-78
2020/12/13 10:51:05;;;;;;;13.38;5.38;;;9.70;99.90;;;;;;5058248;28;20037;-80
2020/12/13 10:53:31;;;;;;;16.73;5.55;;;9.80;99.90;;;;;;5043276;28;20039;-77
2020/12/13 10:55:57;;;;;;;18.67;5.18;;;9.80;99.90;;;;;;5064460;28;20040;-78
2020/12/13 10:58:23;;;;;;;15.52;5.82;;;9.70;99.90;;;;;;5066001;28;20025;-77
2020/12/13 11:00:48;;;;;;;20.38;5.53;;;9.80;99.90;;;;;;5047058;28;20124;-78
2020/12/13 11:03:16;;;;;;;15.55;5.22;;;9.70;99.90;;;;;;5058113;28;20053;-79
2020/12/13 11:05:44;;;;;;;20.17;5.60;;;9.70;99.90;;;;;;5054568;28;20055;-78
2020/12/13 11:08:11;;;;;;;15.30;5.97;;;9.80;99.90;;;;;;5052869;28;20044;-77
2020/12/13 11:10:37;;;;;;;18.45;5.30;;;9.80;99.90;;;;;;5057441;28;20017;-77
2020/12/13 11:13:03;;;;;;;17.60;5.40;;;9.90;99.90;;;;;;5059819;28;20013;-78
2020/12/13 11:15:28;;;;;;;12.10;4.32;;;9.90;99.90;;;;;;5044505;28;20044;-77
2020/12/13 11:17:54;;;;;;;10.70;4.25;;;10.00;99.90;;;;;;5064693;28;20021;-79
2020/12/13 11:20:20;;;;;;;30.25;5.72;;;10.00;99.90;;;;;;5061085;28;20037;-77
2020/12/13 11:22:45;;;;;;;20.75;6.10;;;10.00;99.90;;;;;;5063524;28;20092;-78
2020/12/13 11:25:11;;;;;;;18.52;4.70;;;10.10;99.90;;;;;;5063131;28;21277;-74
2020/12/13 11:27:37;;;;;;;16.42;4.90;;;10.10;99.90;;;;;;5060303;28;20025;-74
2020/12/13 11:30:05;;;;;;;13.55;4.60;;;10.10;99.90;;;;;;5062539;28;20074;-72
2020/12/13 11:32:30;;;;;;;23.52;6.03;;;10.20;99.90;;;;;;5060070;28;20025;-74
2020/12/13 11:34:56;;;;;;;17.52;4.68;;;10.10;99.90;;;;;;5058531;28;20116;-73
2020/12/13 11:37:22;;;;;;;24.85;5.40;;;10.20;99.90;;;;;;5031748;28;20383;-75
2020/12/13 11:39:48;;;;;;;13.90;4.22;;;10.20;99.90;;;;;;5043015;28;20265;-73
2020/12/13 11:42:16;;;;;;;16.73;4.22;;;10.20;99.90;;;;;;5027987;28;20036;-74
2020/12/13 11:44:42;;;;;;;13.73;4.25;;;10.20;99.90;;;;;;5044705;28;20545;-73
2020/12/13 11:47:08;;;;;;;21.50;5.68;;;10.20;99.90;;;;;;5046021;28;20045;-74
2020/12/13 11:49:33;;;;;;;18.88;4.85;;;10.20;99.90;;;;;;5045341;28;20033;-74
2020/12/13 11:51:59;;;;;;;17.10;5.57;;;10.20;99.90;;;;;;5027894;28;20052;-74
2020/12/13 11:54:25;;;;;;;19.38;5.55;;;10.20;99.90;;;;;;5042960;28;20096;-75
2020/12/13 11:56:50;;;;;;;23.95;5.25;;;10.10;99.90;;;;;;5044582;28;20039;-74
2020/12/13 11:59:16;;;;;;;19.40;5.88;;;10.10;99.90;;;;;;5044255;28;20038;-74
2020/12/13 12:01:44;;;;;;;20.58;5.68;;;10.10;99.90;;;;;;5042871;28;20037;-76
2020/12/13 12:04:11;;;;;;;24.75;5.90;;;10.20;99.90;;;;;;5042833;28;20021;-76
2020/12/13 12:06:37;;;;;;;13.45;5.20;;;10.20;99.90;;;;;;5041795;28;20033;-74
2020/12/13 12:09:03;;;;;;;16.20;5.47;;;10.20;99.90;;;;;;5043583;28;20021;-73
2020/12/13 12:11:29;;;;;;;16.33;4.60;;;10.20;99.90;;;;;;5043662;28;20013;-76
2020/12/13 12:13:55;;;;;;;15.68;4.90;;;10.20;99.90;;;;;;5045043;28;20526;-77
2020/12/13 12:16:28;;;;;;;21.58;5.82;;;10.10;99.90;;;;;;5032063;28;20030;-78
2020/12/13 12:18:59;;;;;;;20.58;6.60;;;10.00;99.90;;;;;;5037919;28;20544;-78
2020/12/13 12:21:27;;;;;;;18.98;6.53;;;10.10;99.90;;;;;;5043606;28;20021;-77
2020/12/13 12:23:53;;;;;;;16.42;5.00;;;10.00;99.90;;;;;;5044077;28;20021;-77
2020/12/13 12:26:22;;;;;;;19.20;5.63;;;10.10;99.90;;;;;;5045571;28;20055;-79
2020/12/13 12:28:50;;;;;;;19.17;5.65;;;10.10;99.90;;;;;;5043890;28;20029;-78
2020/12/13 12:31:20;;;;;;;28.52;6.55;;;10.10;99.90;;;;;;5045342;28;20120;-78
2020/12/13 12:33:46;;;;;;;16.15;5.32;;;10.10;99.90;;;;;;5045222;28;20025;-78
2020/12/13 12:36:20;;;;;;;14.10;4.70;;;10.10;99.90;;;;;;5045283;28;20040;-77
2020/12/13 12:38:46;;;;;;;24.45;5.45;;;10.10;99.90;;;;;;5045562;28;20032;-77
2020/12/13 12:41:14;;;;;;;17.80;5.93;;;10.20;99.90;;;;;;5044453;28;20077;-78
2020/12/13 12:43:40;;;;;;;27.48;6.53;;;10.20;99.90;;;;;;5026076;28;20029;-77
2020/12/13 12:46:05;;;;;;;18.70;5.20;;;10.20;99.90;;;;;;5046881;28;20040;-78
